createdAt,value
2018-09-03T00:01:30.454Z,54.74
2018-09-03T00:03:58.156Z,54.90
2018-09-03T00:06:25.827Z,54.55
2018-09-03T00:08:53.482Z,55.33
2018-09-03T00:11:21.175Z,55.31
2018-09-03T00:13:48.836Z,55.08
2018-09-03T00:16:16.518Z,55.65
2018-09-03T00:18:44.220Z,56.32
2018-09-03T00:21:11.893Z,55.49
2018-09-03T00:23:39.590Z,55.34
2018-09-03T00:26:07.293Z,55.27
2018-09-03T00:28:34.975Z,55.77
2018-09-03T00:31:08.150Z,55.20
2018-09-03T00:33:41.305Z,54.90
2018-09-03T00:36:14.428Z,55.47
2018-09-03T00:38:47.598Z,56.02
2018-09-03T00:41:20.779Z,56.69
2018-09-03T00:43:53.955Z,56.66
2018-09-03T00:46:27.170Z,57.75
2018-09-03T00:48:54.826Z,56.88
2018-09-03T00:51:22.543Z,57.83
2018-09-03T00:53:50.242Z,57.41
2018-09-03T00:56:17.942Z,58.14
2018-09-03T00:58:45.611Z,58.22
2018-09-03T01:01:13.294Z,57.89
2018-09-03T01:03:40.952Z,58.56
2018-09-03T01:06:08.627Z,59.48
2018-09-03T01:08:36.324Z,59.24
2018-09-03T01:11:04.027Z,58.90
2018-09-03T01:13:31.698Z,59.10
2018-09-03T01:15:59.385Z,58.28
2018-09-03T01:18:27.074Z,58.47
2018-09-03T01:20:54.746Z,58.33
2018-09-03T01:23:22.467Z,59.06
2018-09-03T01:25:50.159Z,58.07
2018-09-03T01:28:17.855Z,58.60
2018-09-03T01:30:45.528Z,58.12
2018-09-03T01:33:13.189Z,58.59
2018-09-03T01:35:40.832Z,58.21
2018-09-03T01:38:08.593Z,58.59
2018-09-03T01:40:36.242Z,59.20
2018-09-03T01:43:03.949Z,59.30
2018-09-03T01:45:31.642Z,58.75
2018-09-03T01:47:59.287Z,58.95
2018-09-03T01:50:26.945Z,58.97
2018-09-03T01:52:54.629Z,58.67
2018-09-03T01:55:22.298Z,58.42
2018-09-03T01:57:50.007Z,57.95
2018-09-03T02:00:17.722Z,57.87
2018-09-03T02:02:45.388Z,58.24
2018-09-03T02:05:13.051Z,58.89
2018-09-03T02:07:40.756Z,59.08
2018-09-03T02:10:08.427Z,59.31
2018-09-03T02:12:36.075Z,59.59
2018-09-03T02:15:03.827Z,59.48
2018-09-03T02:17:31.590Z,60.63
2018-09-03T02:19:59.250Z,59.77
2018-09-03T02:22:26.962Z,59.59
2018-09-03T02:24:54.655Z,59.93
2018-09-03T02:27:22.355Z,59.79
2018-09-03T02:29:50.063Z,60.61
2018-09-03T02:32:17.747Z,60.68
2018-09-03T02:34:45.414Z,61.03
2018-09-03T02:37:13.131Z,62.27
2018-09-03T02:39:40.821Z,61.50
2018-09-03T02:42:08.569Z,62.03
2018-09-03T02:44:36.317Z,62.34
2018-09-03T02:47:05.130Z,62.54
2018-09-03T02:49:32.801Z,62.60
2018-09-03T02:52:00.532Z,63.16
2018-09-03T02:54:28.221Z,63.24
2018-09-03T02:56:55.979Z,62.98
2018-09-03T02:59:23.672Z,62.82
2018-09-03T03:01:51.352Z,63.36
2018-09-03T03:04:19.037Z,64.01
2018-09-03T03:06:46.767Z,62.96
2018-09-03T03:09:14.426Z,63.19
2018-09-03T03:11:42.157Z,62.84
2018-09-03T03:14:09.899Z,63.60
2018-09-03T03:16:37.579Z,62.51
2018-09-03T03:19:05.395Z,62.46
2018-09-03T03:21:33.189Z,62.64
2018-09-03T03:24:00.907Z,61.74
2018-09-03T03:26:28.590Z,62.26
2018-09-03T03:28:56.307Z,62.00
2018-09-03T03:31:23.999Z,61.90
2018-09-03T03:33:51.826Z,62.26
2018-09-03T03:36:19.530Z,62.29
2018-09-03T03:38:47.250Z,62.76
2018-09-03T03:41:14.930Z,62.74
2018-09-03T03:43:42.639Z,61.99
2018-09-03T03:46:10.296Z,62.26
2018-09-03T03:48:37.988Z,62.30
2018-09-03T03:51:05.734Z,62.52
2018-09-03T03:53:33.417Z,62.40
2018-09-03T03:56:01.089Z,62.78
2018-09-03T03:58:28.806Z,62.76
2018-09-03T04:00:56.465Z,61.75
2018-09-03T04:03:24.133Z,61.28
2018-09-03T04:05:51.840Z,61.83
2018-09-03T04:08:19.514Z,61.27
2018-09-03T04:10:47.173Z,60.05
2018-09-03T04:13:14.860Z,58.25
2018-09-03T04:15:42.539Z,56.71
2018-09-03T04:18:10.203Z,57.40
2018-09-03T04:20:37.882Z,55.96
2018-09-03T04:23:05.832Z,53.52
2018-09-03T04:25:33.501Z,51.57
2018-09-03T04:28:01.302Z,52.55
2018-09-03T04:30:29.055Z,53.47
2018-09-03T04:32:56.734Z,51.34
2018-09-03T04:35:24.482Z,50.93
2018-09-03T04:37:52.369Z,49.71
2018-09-03T04:40:20.109Z,47.17
2018-09-03T04:42:47.803Z,44.29
2018-09-03T04:45:15.501Z,43.38
2018-09-03T04:47:43.166Z,43.10
2018-09-03T04:50:10.850Z,40.94
2018-09-03T04:52:38.549Z,40.49
2018-09-03T04:55:06.346Z,39.57
2018-09-03T04:57:34.028Z,40.47
2018-09-03T05:00:01.696Z,38.90
2018-09-03T05:02:29.358Z,38.75
2018-09-03T05:04:57.047Z,37.74
2018-09-03T05:07:24.732Z,38.49
2018-09-03T05:09:53.114Z,39.64
2018-09-03T05:12:20.834Z,40.54
2018-09-03T05:14:48.612Z,41.16
2018-09-03T05:17:16.288Z,38.67
2018-09-03T05:19:44.011Z,39.55
2018-09-03T05:22:11.672Z,40.45
2018-09-03T05:24:39.458Z,39.11
2018-09-03T05:27:07.198Z,39.30
2018-09-03T05:29:34.976Z,37.60
2018-09-03T05:32:02.711Z,36.77
2018-09-03T05:34:30.405Z,36.38
2018-09-03T05:36:58.055Z,36.04
2018-09-03T05:39:25.720Z,36.64
2018-09-03T05:41:53.462Z,35.82
2018-09-03T05:44:21.122Z,34.43
2018-09-03T05:46:48.798Z,32.84
2018-09-03T05:49:16.502Z,33.17
2018-09-03T05:51:44.179Z,34.45
2018-09-03T05:54:11.850Z,33.90
2018-09-03T05:56:39.717Z,33.72
2018-09-03T05:59:07.509Z,33.62
2018-09-03T06:01:35.209Z,36.62
2018-09-03T06:04:03.295Z,39.74
2018-09-03T06:06:31.001Z,40.56
2018-09-03T06:08:58.648Z,41.57
2018-09-03T06:11:26.406Z,41.31
2018-09-03T06:13:54.062Z,41.31
2018-09-03T06:16:22.502Z,41.91
2018-09-03T06:18:50.308Z,42.98
2018-09-03T06:21:17.995Z,41.94
2018-09-03T06:23:45.671Z,39.88
2018-09-03T06:26:13.381Z,38.36
2018-09-03T06:28:41.063Z,38.44
2018-09-03T06:31:08.753Z,36.90
2018-09-03T06:33:36.471Z,35.43
2018-09-03T06:36:04.154Z,36.35
2018-09-03T06:38:31.845Z,37.56
2018-09-03T06:40:59.567Z,37.75
2018-09-03T06:43:27.243Z,36.46
2018-09-03T06:45:54.957Z,36.74
2018-09-03T06:48:22.655Z,37.16
2018-09-03T06:50:50.329Z,37.59
2018-09-03T06:53:18.233Z,37.69
2018-09-03T06:55:46.023Z,37.54
2018-09-03T06:58:13.686Z,37.62
2018-09-03T07:00:41.331Z,36.79
2018-09-03T07:03:09.059Z,35.69
2018-09-03T07:05:36.727Z,35.07
2018-09-03T07:08:04.465Z,35.49
2018-09-03T07:10:32.187Z,35.75
2018-09-03T07:13:04.341Z,36.72
2018-09-03T07:15:32.116Z,37.89
2018-09-03T07:18:00.047Z,38.12
2018-09-03T07:20:27.718Z,37.90
2018-09-03T07:22:55.557Z,36.63
2018-09-03T07:25:23.234Z,35.50
2018-09-03T07:27:50.907Z,35.70
2018-09-03T07:30:18.613Z,36.92
2018-09-03T07:32:46.286Z,37.34
2018-09-03T07:35:13.998Z,38.19
2018-09-03T07:37:41.680Z,39.35
2018-09-03T07:40:09.366Z,38.33
2018-09-03T07:42:37.064Z,37.57
2018-09-03T07:45:05.163Z,36.84
2018-09-03T07:47:32.893Z,35.90
2018-09-03T07:50:00.575Z,35.54
2018-09-03T07:52:28.391Z,35.66
2018-09-03T07:54:56.075Z,35.33
2018-09-03T07:57:23.995Z,34.65
2018-09-03T07:59:51.728Z,35.55
2018-09-03T08:02:19.437Z,37.14
2018-09-03T08:04:47.130Z,35.56
2018-09-03T08:07:14.882Z,35.65
2018-09-03T08:09:42.695Z,35.52
2018-09-03T08:12:10.392Z,35.01
2018-09-03T08:14:38.076Z,31.87
2018-09-03T08:17:05.869Z,34.84
2018-09-03T08:19:33.581Z,33.00
2018-09-03T08:22:01.875Z,31.87
2018-09-03T08:24:29.584Z,31.26
2018-09-03T08:26:57.350Z,31.41
2018-09-03T08:29:25.086Z,31.82
2018-09-03T08:31:52.899Z,31.75
2018-09-03T08:34:20.637Z,31.67
2018-09-03T08:36:48.356Z,32.07
2018-09-03T08:39:16.035Z,32.55
2018-09-03T08:41:43.738Z,31.41
2018-09-03T08:44:11.491Z,30.98
2018-09-03T08:46:39.196Z,31.59
2018-09-03T08:49:06.970Z,30.10
2018-09-03T08:51:34.678Z,30.59
2018-09-03T08:54:02.437Z,28.47
2018-09-03T08:56:30.209Z,27.85
2018-09-03T08:58:57.985Z,27.94
2018-09-03T09:01:25.692Z,26.13
2018-09-03T09:03:53.475Z,25.97
2018-09-03T09:06:21.201Z,26.89
2018-09-03T09:08:48.908Z,26.99
2018-09-03T09:11:16.613Z,28.51
2018-09-03T09:13:44.366Z,26.80
2018-09-03T09:16:12.094Z,27.07
2018-09-03T09:18:39.868Z,27.31
2018-09-03T09:21:07.738Z,26.95
2018-09-03T09:23:35.461Z,28.21
2018-09-03T09:26:03.194Z,29.31
2018-09-03T09:28:30.971Z,30.23
2018-09-03T09:30:58.729Z,29.80
2018-09-03T09:33:26.473Z,28.64
2018-09-03T09:35:54.267Z,28.15
2018-09-03T09:38:22.073Z,28.35
2018-09-03T09:40:49.761Z,28.05
2018-09-03T09:43:17.589Z,27.98
2018-09-03T09:45:45.341Z,28.68
2018-09-03T09:48:13.146Z,30.07
2018-09-03T09:50:41.174Z,30.00
2018-09-03T09:53:08.903Z,30.00
2018-09-03T09:55:36.545Z,30.80
2018-09-03T09:58:04.325Z,30.64
2018-09-03T10:00:37.671Z,31.47
2018-09-03T10:03:05.606Z,32.67
2018-09-03T10:05:33.341Z,30.75
2018-09-03T10:08:01.041Z,29.02
2018-09-03T10:10:29.216Z,28.01
2018-09-03T10:12:57.026Z,27.27
2018-09-03T10:15:24.755Z,29.47
2018-09-03T10:17:52.517Z,28.08
2018-09-03T10:20:20.257Z,27.52
2018-09-03T10:22:48.059Z,28.59
2018-09-03T10:25:15.785Z,28.70
2018-09-03T10:27:43.485Z,28.41
2018-09-03T10:30:11.189Z,28.20
2018-09-03T10:32:39.064Z,29.13
2018-09-03T10:35:06.897Z,27.69
2018-09-03T10:37:34.692Z,28.12
2018-09-03T10:40:02.444Z,28.58
2018-09-03T10:42:30.229Z,27.66
2018-09-03T10:44:57.950Z,28.99
2018-09-03T10:47:25.690Z,30.69
2018-09-03T10:49:53.393Z,28.78
2018-09-03T10:52:21.085Z,27.98
2018-09-03T10:54:48.808Z,29.60
2018-09-03T10:57:16.514Z,31.27
2018-09-03T10:59:44.225Z,29.25
2018-09-03T11:02:11.984Z,31.06
2018-09-03T11:04:39.713Z,29.76
2018-09-03T11:07:07.890Z,29.68
2018-09-03T11:09:35.963Z,27.49
2018-09-03T11:12:04.919Z,28.16
2018-09-03T11:14:32.719Z,27.00
2018-09-03T11:17:00.442Z,24.54
2018-09-03T11:19:30.352Z,24.38
2018-09-03T11:21:58.060Z,26.45
2018-09-03T11:24:26.132Z,28.23
2018-09-03T11:26:53.876Z,26.79
2018-09-03T11:29:21.562Z,26.50
2018-09-03T11:31:49.310Z,25.99
2018-09-03T11:34:17.085Z,25.41
2018-09-03T11:36:44.815Z,26.83
2018-09-03T11:39:12.706Z,25.74
2018-09-03T11:41:41.142Z,25.91
2018-09-03T11:44:08.881Z,26.42
2018-09-03T11:46:36.920Z,26.46
2018-09-03T11:49:04.969Z,26.13
2018-09-03T11:51:32.679Z,26.87
2018-09-03T11:54:00.464Z,27.62
2018-09-03T11:56:28.207Z,27.22
2018-09-03T11:58:56.794Z,28.02
2018-09-03T12:01:24.569Z,26.49
2018-09-03T12:03:52.727Z,25.34
2018-09-03T12:06:20.415Z,25.86
2018-09-03T12:08:48.160Z,24.84
2018-09-03T12:11:15.928Z,26.47
2018-09-03T12:13:43.619Z,24.73
2018-09-03T12:16:13.256Z,24.70
2018-09-03T12:18:42.177Z,24.10
2018-09-03T12:21:10.536Z,23.35
2018-09-03T12:23:38.622Z,24.74
2018-09-03T12:26:06.938Z,22.68
2018-09-03T12:28:34.765Z,22.86
2018-09-03T12:31:02.557Z,24.17
2018-09-03T12:33:30.302Z,23.34
2018-09-03T12:35:57.973Z,25.00
2018-09-03T12:38:25.753Z,23.36
2018-09-03T12:40:53.494Z,23.63
2018-09-03T12:43:21.241Z,22.99
2018-09-03T12:45:54.395Z,22.74
2018-09-03T12:48:22.345Z,23.76
2018-09-03T12:50:50.178Z,23.22
2018-09-03T12:53:17.920Z,23.13
2018-09-03T12:55:45.601Z,23.66
2018-09-03T12:58:13.300Z,23.15
2018-09-03T13:00:41.084Z,22.31
2018-09-03T13:03:08.995Z,22.40
2018-09-03T13:05:36.712Z,23.26
2018-09-03T13:08:04.507Z,24.32
2018-09-03T13:10:32.250Z,23.16
2018-09-03T13:12:59.949Z,23.98
2018-09-03T13:15:27.721Z,23.86
2018-09-03T13:17:55.414Z,24.44
2018-09-03T13:20:23.136Z,24.91
2018-09-03T13:22:50.902Z,24.24
2018-09-03T13:25:18.635Z,23.35
2018-09-03T13:27:46.574Z,22.79
2018-09-03T13:30:14.324Z,21.82
2018-09-03T13:32:42.038Z,22.40
2018-09-03T13:35:09.742Z,21.74
2018-09-03T13:37:37.502Z,22.66
2018-09-03T13:40:05.618Z,22.18
2018-09-03T13:42:33.377Z,21.84
2018-09-03T13:45:01.206Z,21.40
2018-09-03T13:47:28.929Z,22.56
2018-09-03T13:49:56.657Z,23.21
2018-09-03T13:52:24.399Z,25.24
2018-09-03T13:54:52.160Z,26.53
2018-09-03T13:57:19.889Z,28.03
2018-09-03T13:59:47.639Z,28.24
2018-09-03T14:02:15.397Z,28.07
2018-09-03T14:04:43.189Z,27.33
2018-09-03T14:07:10.917Z,27.41
2018-09-03T14:09:38.766Z,27.20
2018-09-03T14:12:07.208Z,28.50
2018-09-03T14:14:35.005Z,29.67
2018-09-03T14:17:02.813Z,30.01
2018-09-03T14:19:30.564Z,29.40
2018-09-03T14:21:58.363Z,29.59
2018-09-03T14:24:26.113Z,28.70
2018-09-03T14:26:54.160Z,28.27
2018-09-03T14:29:21.888Z,27.84
2018-09-03T14:31:49.634Z,28.06
2018-09-03T14:34:17.377Z,27.49
2018-09-03T14:36:45.148Z,26.38
2018-09-03T14:39:12.894Z,26.54
2018-09-03T14:41:40.596Z,26.95
2018-09-03T14:44:08.908Z,26.52
2018-09-03T14:46:36.594Z,25.42
2018-09-03T14:49:05.062Z,26.33
2018-09-03T14:51:32.793Z,25.22
2018-09-03T14:54:00.485Z,25.32
2018-09-03T14:56:28.174Z,24.79
2018-09-03T14:58:55.948Z,24.80
2018-09-03T15:01:23.973Z,24.64
2018-09-03T15:03:51.677Z,25.31
2018-09-03T15:06:19.419Z,24.33
2018-09-03T15:08:47.174Z,24.35
2018-09-03T15:11:14.926Z,24.24
2018-09-03T15:13:42.765Z,24.73
2018-09-03T15:16:10.481Z,23.73
2018-09-03T15:18:38.221Z,24.43
2018-09-03T15:21:05.976Z,23.90
2018-09-03T15:23:33.808Z,24.70
2018-09-03T15:26:01.627Z,24.45
2018-09-03T15:28:29.341Z,24.59
2018-09-03T15:30:57.043Z,24.85
2018-09-03T15:33:24.773Z,25.18
2018-09-03T15:35:52.540Z,25.47
2018-09-03T15:38:20.285Z,25.89
2018-09-03T15:40:47.974Z,26.20
2018-09-03T15:43:15.793Z,26.14
2018-09-03T15:45:43.522Z,25.43
2018-09-03T15:48:11.261Z,25.07
2018-09-03T15:50:38.989Z,24.89
2018-09-03T15:53:06.761Z,26.21
2018-09-03T15:55:34.520Z,27.60
2018-09-03T15:58:02.298Z,30.08
2018-09-03T16:00:29.991Z,31.08
2018-09-03T16:02:57.756Z,32.14
2018-09-03T16:05:25.520Z,32.52
2018-09-03T16:07:53.234Z,32.76
2018-09-03T16:10:20.938Z,32.60
2018-09-03T16:12:48.649Z,34.01
2018-09-03T16:15:16.376Z,34.29
2018-09-03T16:17:44.114Z,34.42
2018-09-03T16:20:11.898Z,35.14
2018-09-03T16:22:39.659Z,35.85
2018-09-03T16:25:07.505Z,36.96
2018-09-03T16:27:35.264Z,38.03
2018-09-03T16:30:03.056Z,39.19
2018-09-03T16:32:30.725Z,38.85
2018-09-03T16:34:58.524Z,38.16
2018-09-03T16:37:26.197Z,38.80
2018-09-03T16:39:53.940Z,38.34
2018-09-03T16:42:21.744Z,38.36
2018-09-03T16:44:49.489Z,35.97
2018-09-03T16:47:17.161Z,36.27
2018-09-03T16:49:44.948Z,37.49
2018-09-03T16:52:12.662Z,37.08
2018-09-03T16:54:40.329Z,37.13
2018-09-03T16:57:08.149Z,37.18
2018-09-03T16:59:35.876Z,38.24
2018-09-03T17:02:03.614Z,39.04
2018-09-03T17:04:31.453Z,39.57
2018-09-03T17:06:59.225Z,39.57
2018-09-03T17:09:27.049Z,39.67
2018-09-03T17:11:54.833Z,39.83
2018-09-03T17:14:22.744Z,39.44
2018-09-03T17:16:50.426Z,39.52
2018-09-03T17:19:18.197Z,39.22
2018-09-03T17:21:45.888Z,38.96
2018-09-03T17:24:13.603Z,38.62
2018-09-03T17:26:41.402Z,39.67
2018-09-03T17:29:09.141Z,40.09
2018-09-03T17:31:36.825Z,40.13
2018-09-03T17:34:04.550Z,41.02
2018-09-03T17:36:32.273Z,41.76
2018-09-03T17:39:00.054Z,41.43
2018-09-03T17:41:27.791Z,42.11
2018-09-03T17:43:55.468Z,41.41
2018-09-03T17:46:23.205Z,41.25
2018-09-03T17:48:51.245Z,41.04
2018-09-03T17:51:18.965Z,41.36
2018-09-03T17:53:46.701Z,41.63
2018-09-03T17:56:14.494Z,43.36
2018-09-03T17:58:42.322Z,43.18
2018-09-03T18:01:10.072Z,43.42
2018-09-03T18:03:37.957Z,44.06
2018-09-03T18:06:05.915Z,42.35
2018-09-03T18:08:33.769Z,42.64
2018-09-03T18:11:01.537Z,43.73
2018-09-03T18:13:29.296Z,43.97
2018-09-03T18:15:56.998Z,43.53
2018-09-03T18:18:24.785Z,44.42
2018-09-03T18:20:52.478Z,43.82
2018-09-03T18:23:20.166Z,44.79
2018-09-03T18:25:47.917Z,44.04
2018-09-03T18:28:15.632Z,44.06
2018-09-03T18:30:43.457Z,43.93
2018-09-03T18:33:11.313Z,43.68
2018-09-03T18:35:39.018Z,43.83
2018-09-03T18:38:06.729Z,43.57
2018-09-03T18:40:34.504Z,44.99
2018-09-03T18:43:02.337Z,45.35
2018-09-03T18:45:30.057Z,45.46
2018-09-03T18:47:57.818Z,46.18
2018-09-03T18:50:25.533Z,46.96
2018-09-03T18:52:53.338Z,48.40
2018-09-03T18:55:21.061Z,49.07
2018-09-03T18:57:48.821Z,48.99
2018-09-03T19:00:16.565Z,48.07
2018-09-03T19:02:44.283Z,47.88
2018-09-03T19:05:12.050Z,48.63
2018-09-03T19:07:39.765Z,48.45
2018-09-03T19:10:07.568Z,48.58
2018-09-03T19:12:35.274Z,48.02
2018-09-03T19:15:03.025Z,48.97
2018-09-03T19:17:30.765Z,49.06
2018-09-03T19:19:58.497Z,48.25
2018-09-03T19:22:26.226Z,48.23
2018-09-03T19:24:54.025Z,48.97
2018-09-03T19:27:21.852Z,47.35
2018-09-03T19:29:49.548Z,47.30
2018-09-03T19:32:17.312Z,47.86
2018-09-03T19:34:45.045Z,47.39
2018-09-03T19:37:12.768Z,47.76
2018-09-03T19:39:40.544Z,48.33
2018-09-03T19:42:08.433Z,47.46
2018-09-03T19:44:36.135Z,48.74
2018-09-03T19:47:03.858Z,48.75
2018-09-03T19:49:31.593Z,49.08
2018-09-03T19:51:59.363Z,48.65
2018-09-03T19:54:27.149Z,49.34
2018-09-03T19:56:54.848Z,49.36
2018-09-03T19:59:22.554Z,48.60
2018-09-03T20:01:50.284Z,48.75
2018-09-03T20:04:17.988Z,47.94
2018-09-03T20:06:45.657Z,48.50
2018-09-03T20:09:13.408Z,48.55
2018-09-03T20:11:41.154Z,48.19
2018-09-03T20:14:08.836Z,48.62
2018-09-03T20:16:36.637Z,49.61
2018-09-03T20:19:04.397Z,48.95
2018-09-03T20:21:32.080Z,49.77
2018-09-03T20:23:59.935Z,49.98
2018-09-03T20:26:27.620Z,49.51
2018-09-03T20:28:55.337Z,49.81
2018-09-03T20:31:23.102Z,50.75
2018-09-03T20:33:50.826Z,49.83
2018-09-03T20:36:18.561Z,50.98
2018-09-03T20:38:46.325Z,50.93
2018-09-03T20:41:14.351Z,51.00
2018-09-03T20:43:42.088Z,51.35
2018-09-03T20:46:09.813Z,51.35
2018-09-03T20:48:37.657Z,51.30
2018-09-03T20:51:06.219Z,51.80
2018-09-03T20:53:33.983Z,52.11
2018-09-03T20:56:01.938Z,51.07
2018-09-03T20:58:29.785Z,51.58
2018-09-03T21:00:57.527Z,51.55
2018-09-03T21:03:25.232Z,52.23
2018-09-03T21:05:52.960Z,53.58
2018-09-03T21:08:20.834Z,53.55
2018-09-03T21:10:48.472Z,53.56
2018-09-03T21:13:16.205Z,54.21
2018-09-03T21:15:43.953Z,54.08
2018-09-03T21:18:11.629Z,55.05
2018-09-03T21:20:39.313Z,56.13
2018-09-03T21:23:07.118Z,55.80
2018-09-03T21:25:34.881Z,55.38
2018-09-03T21:28:03.470Z,55.54
2018-09-03T21:30:31.205Z,54.70
2018-09-03T21:32:58.904Z,55.46
2018-09-03T21:35:26.631Z,55.26
2018-09-03T21:37:54.819Z,54.98
2018-09-03T21:40:22.546Z,55.17
2018-09-03T21:42:50.195Z,54.57
2018-09-03T21:45:17.936Z,54.41
2018-09-03T21:47:45.676Z,54.97
2018-09-03T21:50:13.354Z,54.82
2018-09-03T21:52:41.066Z,54.79
2018-09-03T21:55:08.764Z,54.77
2018-09-03T21:57:36.451Z,54.55
2018-09-03T22:00:04.598Z,54.69
2018-09-03T22:02:32.287Z,54.79
2018-09-03T22:04:59.975Z,55.71
2018-09-03T22:07:27.719Z,56.48
2018-09-03T22:09:55.414Z,56.38
2018-09-03T22:12:23.085Z,55.70
2018-09-03T22:14:50.773Z,55.69
2018-09-03T22:17:18.463Z,55.73
2018-09-03T22:19:46.147Z,56.26
2018-09-03T22:22:13.854Z,56.43
2018-09-03T22:24:41.657Z,56.97
2018-09-03T22:27:09.339Z,55.65
2018-09-03T22:29:37.046Z,56.07
2018-09-03T22:32:04.831Z,57.32
2018-09-03T22:34:32.523Z,56.35
2018-09-03T22:37:00.217Z,56.38
2018-09-03T22:39:27.885Z,55.93
2018-09-03T22:41:55.543Z,56.71
2018-09-03T22:44:23.255Z,56.85
2018-09-03T22:46:50.937Z,57.49
2018-09-03T22:49:18.628Z,58.07
2018-09-03T22:51:46.356Z,57.65
2018-09-03T22:54:14.019Z,58.99
2018-09-03T22:56:41.718Z,57.70
2018-09-03T22:59:09.434Z,57.41
2018-09-03T23:01:37.101Z,57.01
2018-09-03T23:04:04.889Z,56.85
2018-09-03T23:06:32.563Z,57.89
2018-09-03T23:09:00.246Z,56.56
2018-09-03T23:11:27.980Z,56.46
2018-09-03T23:13:55.702Z,57.40
2018-09-03T23:16:23.423Z,57.86
2018-09-03T23:18:51.186Z,57.52
2018-09-03T23:21:19.040Z,57.70
2018-09-03T23:23:46.811Z,57.87
2018-09-03T23:26:14.501Z,59.22
2018-09-03T23:28:42.255Z,59.24
2018-09-03T23:31:09.970Z,60.36
2018-09-03T23:33:37.707Z,61.94
2018-09-03T23:36:05.449Z,61.83
2018-09-03T23:38:33.228Z,62.79
2018-09-03T23:41:00.929Z,62.22
2018-09-03T23:43:28.765Z,63.27
2018-09-03T23:45:56.553Z,63.95
2018-09-03T23:48:24.299Z,64.48
2018-09-03T23:50:52.197Z,64.40
2018-09-03T23:53:19.933Z,64.18
2018-09-03T23:55:47.838Z,64.23
2018-09-03T23:58:15.538Z,65.12
